Airfield :
LOGIN :

Register | Disclaimer

   EN    FR    IT 

 










Legend :    VFR   Marginal VFR   IFR   Intensive IFR   Very Intensive IFR
Visi :
Ceiling :
>= 8 km
>= 3000ft
5 to 8 km
1000 to 3000 ft
1500m to 5 km
500 to 1000 ft
800 to 1500m
200 to 500 ft
< 800m
< 200 ft
Symbols :   Thunderstorms  Fog  Heavy snow  Heavy precipitations  Wind > 20 kt
SIGMETs :     Misc.  Thunderstorms  Icing  Turbulence  Mountain Waves  Volcanic Ashes






- Airport Elevation : 348 ft
- IATA code : LDV


LFRJ - Landivisiau

CURRENT METAR :
  • 170430Z AUTO 19003KT 6000 BKN036 OVC045 06/05 Q1008

EXPIRED METARs :
  • 170400Z AUTO 19003KT 7000 BKN038/// OVC045/// ///TCU 06/05 Q1008
  • 170330Z AUTO 19002KT 7000 -RA BKN039/// OVC047/// ///TCU 06/05 Q1008
  • 170300Z AUTO 23004KT 8000 BKN039/// BKN048/// OVC054/// ///TCU 06/05 Q1008
  • 170230Z AUTO 21004KT 7000 FEW030 OVC040 06/05 Q1008
  • 170200Z AUTO 21004KT 8000 FEW036 BKN043 OVC049 06/05 Q1008

Expired Forecast.



MET'MAP, your aeronautical weather chart ! - Copyright ORBIFLY December 2007 - Disclaimer

ORBIFLY MET'MAP TEAM :

Programming & Development : Alexandra Zaïnal
Concept & Development : Baudouin d'Aumeries
Co-Development & Prog : Marc-Olivier Méhu
Technical & hardware support : Manuel Goepfert

Contact : metmap@orbifly.com




SOURCES & CREDITS :

   NOAA